Emek S — 9HTA9 — position and weather

sailwx.info

Track history (hours):
 
Tides and Currents Weather Stations Pressure Air Temp Water Temp Dewpoint Dewpoint Depression Visibility Wind Speed Wind Dir Waves Ship Positions

Emek S

Last reported at 2017-Sep-14 06:48 UTC. Time now 2017-Sep-23 00:12 UTC.
Position N 27°40' W 082°36'.
Warning: this ship's position is 8 days out of date.

Length 112 m; draft 6.5 m.

Type: Ship (hazmat cat B). MMSI: 249475000.

Date/timePositionNaut miles runAvg speedWind from/ knotsBaromVisibWave heightAir tempDewpointWater temp
2017-Sep-14 06:48N 27°40' W 082°36'311.0
2017-Sep-14 06:30N 27°42' W 082°33'510.6
2017-Sep-14 06:00N 27°47' W 082°31'510.0
2017-Sep-14 05:30N 27°50' W 082°27'4 8.6
2017-Sep-14 05:00N 27°55' W 082°26'0 0.9
2017-Sep-14 04:29N 27°55' W 082°26'0 0.0
2017-Sep-14 03:59N 27°55' W 082°26'0 0.0
2017-Sep-14 03:23N 27°55' W 082°26'0 0.0
2017-Sep-14 02:58N 27°55' W 082°26'0 0.0
2017-Sep-14 02:28N 27°55' W 082°26'0 0.0
2017-Sep-14 01:58N 27°55' W 082°26'0 0.0
2017-Sep-14 01:28N 27°55' W 082°26'0 0.0
2017-Sep-14 00:58N 27°55' W 082°26'0 0.0
2017-Sep-14 00:28N 27°55' W 082°26'0 0.0
2017-Sep-13 23:57N 27°55' W 082°26'0 0.0
2017-Sep-13 23:30N 27°55' W 082°26'0 0.0
2017-Sep-13 23:00N 27°55' W 082°26'0 0.0
2017-Sep-13 22:30N 27°55' W 082°26'0 0.0
2017-Sep-13 22:00N 27°55' W 082°26'0 0.0
2017-Sep-13 21:29N 27°55' W 082°26'0 0.0
2017-Sep-13 20:59N 27°55' W 082°26'0 0.0
2017-Sep-13 20:29N 27°55' W 082°26'0 0.0
2017-Sep-13 19:59N 27°55' W 082°26'0 0.0
2017-Sep-13 19:29N 27°55' W 082°26'0 0.0
2017-Sep-13 18:52N 27°55' W 082°26'0 0.0
2017-Sep-13 18:25N 27°55' W 082°26'0 0.0
2017-Sep-13 17:58N 27°55' W 082°26'0 0.0
2017-Sep-13 17:28N 27°55' W 082°26'0 0.0
2017-Sep-13 17:00N 27°55' W 082°26'0 0.0
2017-Sep-13 16:30N 27°55' W 082°26'0 0.0
2017-Sep-13 15:57N 27°55' W 082°26'0 0.0
2017-Sep-13 15:30N 27°55' W 082°26'0 0.0
2017-Sep-13 15:00N 27°55' W 082°26'0 0.0
2017-Sep-13 14:29N 27°55' W 082°26'0 0.0
2017-Sep-13 13:59N 27°55' W 082°26'0 0.0
2017-Sep-13 13:29N 27°55' W 082°26'0 0.0
2017-Sep-13 12:59N 27°55' W 082°26'0 0.0
2017-Sep-13 12:29N 27°55' W 082°26'0 0.0
2017-Sep-13 11:58N 27°55' W 082°26'0 0.0
2017-Sep-13 11:28N 27°55' W 082°26'0 0.0
2017-Sep-13 10:58N 27°55' W 082°26'0 0.0
2017-Sep-13 10:28N 27°55' W 082°26'0 0.0
2017-Sep-13 10:00N 27°55' W 082°26'0 0.0
2017-Sep-13 09:30N 27°55' W 082°26'0 0.0
2017-Sep-13 09:00N 27°55' W 082°26'0 0.0
2017-Sep-13 08:30N 27°55' W 082°26'0 0.0
2017-Sep-13 08:00N 27°55' W 082°26'0 0.0
2017-Sep-13 07:29N 27°55' W 082°26'0 0.0
2017-Sep-13 06:59N 27°55' W 082°26'0 0.0
2017-Sep-13 06:29N 27°55' W 082°26'0 0.0
2017-Sep-13 05:59N 27°55' W 082°26'0 0.0
2017-Sep-13 05:28N 27°55' W 082°26'0 0.0
2017-Sep-13 04:58N 27°55' W 082°26'0 0.0
2017-Sep-13 04:28N 27°55' W 082°26'0 0.0
2017-Sep-13 03:58N 27°55' W 082°26'0 0.0
2017-Sep-13 03:28N 27°55' W 082°26'0 0.0
2017-Sep-13 03:00N 27°55' W 082°26'0 0.0
2017-Sep-13 02:30N 27°55' W 082°26'0 0.0
2017-Sep-13 02:00N 27°55' W 082°26'0 0.0
2017-Sep-13 01:30N 27°55' W 082°26'1 2.1
2017-Sep-13 01:01N 27°54' W 082°26'5 9.8
2017-Sep-13 00:31N 27°49' W 082°27'5 9.9
2017-Sep-13 00:01N 27°46' W 082°31'  
2017-Sep-08 04:33N 29°22' W 094°48'111.9
2017-Sep-08 04:27N 29°23' W 094°49'511.1
2017-Sep-08 03:59N 29°28' W 094°51'510.5
2017-Sep-08 03:29N 29°33' W 094°54'510.3
2017-Sep-08 03:00N 29°37' W 094°57'510.4
2017-Sep-08 02:30N 29°42' W 094°60'4 8.7
2017-Sep-08 02:00N 29°44' W 095°04'2 0.1
2017-Sep-07 04:53N 29°45' W 095°06'1 1.8
2017-Sep-07 04:29N 29°46' W 095°05'4 7.6
2017-Sep-07 04:00N 29°44' W 095°02'4 8.4
2017-Sep-07 03:30N 29°40' W 094°59'510.3
2017-Sep-07 03:01N 29°36' W 094°57'510.1
2017-Sep-07 02:31N 29°32' W 094°53'510.0
2017-Sep-07 01:59N 29°27' W 094°50'  
Track history (hours):
 
Tides and Currents Weather Stations Pressure Air Temp Water Temp Dewpoint Dewpoint Depression Visibility Wind Speed Wind Dir Waves Ship Positions

Emek S

Last reported at 2017-Sep-14 06:48 UTC. Time now 2017-Sep-23 00:12 UTC.
Position N 27°40' W 082°36'.
Warning: this ship's position is 8 days out of date.

Length 112 m; draft 6.5 m.

Type: Ship (hazmat cat B). MMSI: 249475000.

Date/timePositionNaut miles runAvg speedWind from/ knotsBaromVisibWave heightAir tempDewpointWater temp
2017-Sep-14 06:48N 27°40' W 082°36'311.0
2017-Sep-14 06:30N 27°42' W 082°33'510.6
2017-Sep-14 06:00N 27°47' W 082°31'510.0
2017-Sep-14 05:30N 27°50' W 082°27'4 8.6
2017-Sep-14 05:00N 27°55' W 082°26'0 0.9
2017-Sep-14 04:29N 27°55' W 082°26'0 0.0
2017-Sep-14 03:59N 27°55' W 082°26'0 0.0
2017-Sep-14 03:23N 27°55' W 082°26'0 0.0
2017-Sep-14 02:58N 27°55' W 082°26'0 0.0
2017-Sep-14 02:28N 27°55' W 082°26'0 0.0
2017-Sep-14 01:58N 27°55' W 082°26'0 0.0
2017-Sep-14 01:28N 27°55' W 082°26'0 0.0
2017-Sep-14 00:58N 27°55' W 082°26'0 0.0
2017-Sep-14 00:28N 27°55' W 082°26'0 0.0
2017-Sep-13 23:57N 27°55' W 082°26'0 0.0
2017-Sep-13 23:30N 27°55' W 082°26'0 0.0
2017-Sep-13 23:00N 27°55' W 082°26'0 0.0
2017-Sep-13 22:30N 27°55' W 082°26'0 0.0
2017-Sep-13 22:00N 27°55' W 082°26'0 0.0
2017-Sep-13 21:29N 27°55' W 082°26'0 0.0
2017-Sep-13 20:59N 27°55' W 082°26'0 0.0
2017-Sep-13 20:29N 27°55' W 082°26'0 0.0
2017-Sep-13 19:59N 27°55' W 082°26'0 0.0
2017-Sep-13 19:29N 27°55' W 082°26'0 0.0
2017-Sep-13 18:52N 27°55' W 082°26'0 0.0
2017-Sep-13 18:25N 27°55' W 082°26'0 0.0
2017-Sep-13 17:58N 27°55' W 082°26'0 0.0
2017-Sep-13 17:28N 27°55' W 082°26'0 0.0
2017-Sep-13 17:00N 27°55' W 082°26'0 0.0
2017-Sep-13 16:30N 27°55' W 082°26'0 0.0
2017-Sep-13 15:57N 27°55' W 082°26'0 0.0
2017-Sep-13 15:30N 27°55' W 082°26'0 0.0
2017-Sep-13 15:00N 27°55' W 082°26'0 0.0
2017-Sep-13 14:29N 27°55' W 082°26'0 0.0
2017-Sep-13 13:59N 27°55' W 082°26'0 0.0
2017-Sep-13 13:29N 27°55' W 082°26'0 0.0
2017-Sep-13 12:59N 27°55' W 082°26'0 0.0
2017-Sep-13 12:29N 27°55' W 082°26'0 0.0
2017-Sep-13 11:58N 27°55' W 082°26'0 0.0
2017-Sep-13 11:28N 27°55' W 082°26'0 0.0
2017-Sep-13 10:58N 27°55' W 082°26'0 0.0
2017-Sep-13 10:28N 27°55' W 082°26'0 0.0
2017-Sep-13 10:00N 27°55' W 082°26'0 0.0
2017-Sep-13 09:30N 27°55' W 082°26'0 0.0
2017-Sep-13 09:00N 27°55' W 082°26'0 0.0
2017-Sep-13 08:30N 27°55' W 082°26'0 0.0
2017-Sep-13 08:00N 27°55' W 082°26'0 0.0
2017-Sep-13 07:29N 27°55' W 082°26'0 0.0
2017-Sep-13 06:59N 27°55' W 082°26'0 0.0
2017-Sep-13 06:29N 27°55' W 082°26'0 0.0
2017-Sep-13 05:59N 27°55' W 082°26'0 0.0
2017-Sep-13 05:28N 27°55' W 082°26'0 0.0
2017-Sep-13 04:58N 27°55' W 082°26'0 0.0
2017-Sep-13 04:28N 27°55' W 082°26'0 0.0
2017-Sep-13 03:58N 27°55' W 082°26'0 0.0
2017-Sep-13 03:28N 27°55' W 082°26'0 0.0
2017-Sep-13 03:00N 27°55' W 082°26'0 0.0
2017-Sep-13 02:30N 27°55' W 082°26'0 0.0
2017-Sep-13 02:00N 27°55' W 082°26'0 0.0
2017-Sep-13 01:30N 27°55' W 082°26'1 2.1
2017-Sep-13 01:01N 27°54' W 082°26'5 9.8
2017-Sep-13 00:31N 27°49' W 082°27'5 9.9
2017-Sep-13 00:01N 27°46' W 082°31'  
2017-Sep-08 04:33N 29°22' W 094°48'111.9
2017-Sep-08 04:27N 29°23' W 094°49'511.1
2017-Sep-08 03:59N 29°28' W 094°51'510.5
2017-Sep-08 03:29N 29°33' W 094°54'510.3
2017-Sep-08 03:00N 29°37' W 094°57'510.4
2017-Sep-08 02:30N 29°42' W 094°60'4 8.7
2017-Sep-08 02:00N 29°44' W 095°04'2 0.1
2017-Sep-07 04:53N 29°45' W 095°06'1 1.8
2017-Sep-07 04:29N 29°46' W 095°05'4 7.6
2017-Sep-07 04:00N 29°44' W 095°02'4 8.4
2017-Sep-07 03:30N 29°40' W 094°59'510.3
2017-Sep-07 03:01N 29°36' W 094°57'510.1
2017-Sep-07 02:31N 29°32' W 094°53'510.0
2017-Sep-07 01:59N 29°27' W 094°50'  

Dump ship's entire track history